createdAt,value
2023-04-22T00:00:14.869Z,7.43
2023-04-22T00:03:04.294Z,9.23
2023-04-22T00:05:31.588Z,9.60
2023-04-22T00:07:58.315Z,9.23
2023-04-22T00:10:25.564Z,10.37
2023-04-22T00:12:52.240Z,12.23
2023-04-22T00:15:21.652Z,12.57
2023-04-22T00:17:49.029Z,8.70
2023-04-22T00:20:21.248Z,11.47
2023-04-22T00:22:48.157Z,10.33
2023-04-22T00:25:16.576Z,10.43
2023-04-22T00:27:44.847Z,11.60
2023-04-22T00:30:12.679Z,11.00
2023-04-22T00:32:39.441Z,17.13
2023-04-22T00:35:07.127Z,11.63
2023-04-22T00:37:34.834Z,12.17
2023-04-22T00:40:02.033Z,11.43
2023-04-22T00:42:29.598Z,14.03
2023-04-22T00:44:57.017Z,10.77
2023-04-22T00:47:26.942Z,11.37
2023-04-22T00:49:55.048Z,13.60
2023-04-22T00:52:22.306Z,10.93
2023-04-22T00:54:49.740Z,10.37
2023-04-22T00:57:17.435Z,10.43
2023-04-22T00:59:45.520Z,12.50
2023-04-22T01:02:13.255Z,13.20
2023-04-22T01:04:40.498Z,8.97
2023-04-22T01:07:07.378Z,10.53
2023-04-22T01:09:34.874Z,11.20
2023-04-22T01:12:02.207Z,9.53
2023-04-22T01:14:29.438Z,9.70
2023-04-22T01:16:56.382Z,10.67
2023-04-22T01:19:23.987Z,9.67
2023-04-22T01:21:51.888Z,10.77
2023-04-22T01:24:19.243Z,11.50
2023-04-22T01:26:46.639Z,10.13
2023-04-22T01:29:14.099Z,14.33
2023-04-22T01:31:41.411Z,9.33
2023-04-22T01:34:08.485Z,10.87
2023-04-22T01:36:35.287Z,11.50
2023-04-22T01:39:02.496Z,11.20
2023-04-22T01:41:29.981Z,10.33
2023-04-22T01:43:59.034Z,11.27
2023-04-22T01:46:25.980Z,13.00
2023-04-22T01:48:53.213Z,13.37
2023-04-22T01:51:22.116Z,12.63
2023-04-22T01:53:49.385Z,9.87
2023-04-22T01:56:16.938Z,9.83
2023-04-22T01:58:44.338Z,12.80
2023-04-22T02:01:12.059Z,11.03
2023-04-22T02:03:39.292Z,14.10
2023-04-22T02:06:06.480Z,13.70
2023-04-22T02:08:33.646Z,17.67
2023-04-22T02:11:00.935Z,14.77
2023-04-22T02:13:35.646Z,12.27
2023-04-22T02:16:02.478Z,14.00
2023-04-22T02:18:29.647Z,15.17
2023-04-22T02:20:56.385Z,13.13
2023-04-22T02:23:24.275Z,19.73
2023-04-22T02:25:52.496Z,15.30
2023-04-22T02:28:19.657Z,16.47
2023-04-22T02:30:46.659Z,18.23
2023-04-22T02:33:14.577Z,13.57
2023-04-22T02:35:41.331Z,18.50
2023-04-22T02:38:08.409Z,23.03
2023-04-22T02:40:35.151Z,17.33
2023-04-22T02:43:02.279Z,24.17
2023-04-22T02:45:29.009Z,25.00
2023-04-22T02:47:56.058Z,19.23
2023-04-22T02:50:22.981Z,20.33
2023-04-22T02:52:49.980Z,28.10
2023-04-22T02:55:16.735Z,22.60
2023-04-22T02:57:43.777Z,30.23
2023-04-22T03:00:10.879Z,24.30
2023-04-22T03:02:38.962Z,24.23
2023-04-22T03:05:16.785Z,25.13
2023-04-22T03:07:47.467Z,20.60
2023-04-22T03:10:15.997Z,25.23
2023-04-22T03:12:43.016Z,19.40
2023-04-22T03:15:10.219Z,20.77
2023-04-22T03:17:37.296Z,20.90
2023-04-22T03:20:09.086Z,21.57
2023-04-22T03:22:36.262Z,28.40
2023-04-22T03:25:04.544Z,25.67
2023-04-22T03:27:32.209Z,23.00
2023-04-22T03:29:58.932Z,30.10
2023-04-22T03:32:26.760Z,23.97
2023-04-22T03:35:10.097Z,33.30
2023-04-22T03:37:37.179Z,30.40
2023-04-22T03:40:05.780Z,28.30
2023-04-22T03:42:33.344Z,34.40
2023-04-22T03:45:00.624Z,32.37
2023-04-22T03:47:31.364Z,29.00
2023-04-22T03:50:07.242Z,29.17
2023-04-22T03:52:36.075Z,33.53
2023-04-22T03:55:02.993Z,33.00
2023-04-22T03:57:31.457Z,30.93
2023-04-22T03:59:59.683Z,30.50
2023-04-22T04:02:27.311Z,31.50
2023-04-22T04:04:56.175Z,26.87
2023-04-22T04:07:23.445Z,32.77
2023-04-22T04:09:51.221Z,28.80
2023-04-22T04:12:18.457Z,31.03
2023-04-22T04:14:45.740Z,26.03
2023-04-22T04:17:16.782Z,29.80
2023-04-22T04:19:44.014Z,25.23
2023-04-22T04:22:11.232Z,28.40
2023-04-22T04:24:47.646Z,23.17
2023-04-22T04:27:20.013Z,26.83
2023-04-22T04:29:52.639Z,27.77
2023-04-22T04:32:40.340Z,26.07
2023-04-22T04:35:09.797Z,23.13
2023-04-22T04:37:40.380Z,22.63
2023-04-22T04:40:12.177Z,23.77
2023-04-22T04:42:53.121Z,23.77
2023-04-22T04:45:24.930Z,21.77
2023-04-22T04:47:55.483Z,24.57
2023-04-22T04:50:31.536Z,23.67
2023-04-22T04:53:02.424Z,24.43
2023-04-22T04:55:38.922Z,24.80
2023-04-22T04:58:11.603Z,27.07
2023-04-22T05:00:38.594Z,24.60
2023-04-22T05:03:09.444Z,22.00
2023-04-22T05:05:36.797Z,25.23
2023-04-22T05:08:04.005Z,25.30
2023-04-22T05:10:31.920Z,26.30
2023-04-22T05:12:59.120Z,23.90
2023-04-22T05:15:26.733Z,25.03
2023-04-22T05:17:54.299Z,25.43
2023-04-22T05:20:21.205Z,23.50
2023-04-22T05:22:48.250Z,27.03
2023-04-22T05:25:16.009Z,27.33
2023-04-22T05:27:52.201Z,34.17
2023-04-22T05:30:19.840Z,23.93
2023-04-22T05:32:46.926Z,25.63
2023-04-22T05:35:14.400Z,20.27
2023-04-22T05:37:42.240Z,27.63
2023-04-22T05:40:09.539Z,21.43
2023-04-22T05:42:36.529Z,18.00
2023-04-22T05:45:03.521Z,20.10
2023-04-22T05:47:30.759Z,16.07
2023-04-22T05:49:58.159Z,19.57
2023-04-22T05:52:40.707Z,14.70
2023-04-22T05:55:12.847Z,15.68
2023-04-22T05:57:40.275Z,16.55
2023-04-22T06:00:16.827Z,13.15
2023-04-22T06:02:53.070Z,14.23
2023-04-22T06:05:20.046Z,13.90
2023-04-22T06:07:47.265Z,13.23
2023-04-22T06:10:14.012Z,15.43
2023-04-22T06:12:41.300Z,18.98
2023-04-22T06:15:08.663Z,15.77
2023-04-22T06:17:36.486Z,15.23
2023-04-22T06:20:03.708Z,13.80
2023-04-22T06:22:32.048Z,14.02
2023-04-22T06:24:59.011Z,13.40
2023-04-22T06:27:26.495Z,17.50
2023-04-22T06:29:53.520Z,13.52
2023-04-22T06:32:20.979Z,14.05
2023-04-22T06:34:48.013Z,12.32
2023-04-22T06:37:15.118Z,14.25
2023-04-22T06:39:42.305Z,16.83
2023-04-22T06:42:28.908Z,12.88
2023-04-22T06:45:28.372Z,12.65
2023-04-22T06:48:07.594Z,15.50
2023-04-22T06:50:52.763Z,13.10
2023-04-22T06:53:19.874Z,11.00
2023-04-22T06:55:46.722Z,17.27
2023-04-22T06:58:13.858Z,11.40
2023-04-22T07:00:40.654Z,12.18
2023-04-22T07:03:07.716Z,14.70
2023-04-22T07:05:34.744Z,10.60
2023-04-22T07:08:02.969Z,11.52
2023-04-22T07:10:29.734Z,12.65
2023-04-22T07:13:27.181Z,12.18
2023-04-22T07:15:54.247Z,11.88
2023-04-22T07:18:21.294Z,11.50
2023-04-22T07:20:48.026Z,12.57
2023-04-22T07:23:15.077Z,11.48
2023-04-22T07:25:41.986Z,14.23
2023-04-22T07:28:09.128Z,12.05
2023-04-22T07:30:35.922Z,13.40
2023-04-22T07:33:02.942Z,10.85
2023-04-22T07:35:30.815Z,10.23
2023-04-22T07:37:57.870Z,10.70
2023-04-22T07:40:24.771Z,13.40
2023-04-22T07:42:51.968Z,10.95
2023-04-22T07:45:19.577Z,11.55
2023-04-22T07:47:46.732Z,11.25
2023-04-22T07:50:13.617Z,18.33
2023-04-22T07:52:40.665Z,14.98
2023-04-22T07:55:08.162Z,13.52
2023-04-22T07:57:38.788Z,17.80
2023-04-22T08:00:07.856Z,10.98
2023-04-22T08:02:41.335Z,12.02
2023-04-22T08:05:08.295Z,10.75
2023-04-22T08:07:35.411Z,14.93
2023-04-22T08:10:02.274Z,11.32
2023-04-22T08:12:29.324Z,9.30
2023-04-22T08:14:58.003Z,10.50
2023-04-22T08:17:25.200Z,11.80
2023-04-22T08:19:52.149Z,10.50
2023-04-22T08:22:19.285Z,8.75
2023-04-22T08:24:46.000Z,10.40
2023-04-22T08:27:12.983Z,10.48
2023-04-22T08:29:40.049Z,10.18
2023-04-22T08:32:07.796Z,9.93
2023-04-22T08:34:34.628Z,9.77
2023-04-22T08:37:01.651Z,12.27
2023-04-22T08:39:28.572Z,10.65
2023-04-22T08:41:56.376Z,10.32
2023-04-22T08:44:23.602Z,11.65
2023-04-22T08:46:51.520Z,10.57
2023-04-22T08:49:19.037Z,18.42
2023-04-22T08:51:46.147Z,9.75
2023-04-22T08:54:13.127Z,14.85
2023-04-22T08:56:45.817Z,9.23
2023-04-22T08:59:13.826Z,10.98
2023-04-22T09:01:42.528Z,8.77
2023-04-22T09:04:11.257Z,6.90
2023-04-22T09:06:39.178Z,7.82
2023-04-22T09:09:06.340Z,7.97
2023-04-22T09:11:33.647Z,6.63
2023-04-22T09:14:00.513Z,7.05
2023-04-22T09:16:30.883Z,6.93
2023-04-22T09:18:59.200Z,7.07
2023-04-22T09:21:28.078Z,4.90
2023-04-22T09:23:56.370Z,6.47
2023-04-22T09:26:26.285Z,8.13
2023-04-22T09:28:55.930Z,9.70
2023-04-22T09:31:23.212Z,8.18
2023-04-22T09:33:53.462Z,5.93
2023-04-22T09:36:27.188Z,8.43
2023-04-22T09:39:05.325Z,7.38
2023-04-22T09:41:34.978Z,6.95
2023-04-22T09:44:03.088Z,13.10
2023-04-22T09:46:33.693Z,10.00
2023-04-22T09:49:01.304Z,6.85
2023-04-22T09:51:29.365Z,6.85
2023-04-22T09:54:06.430Z,8.05
2023-04-22T09:56:49.493Z,9.02
2023-04-22T09:59:24.759Z,8.75
2023-04-22T10:01:55.421Z,9.43
2023-04-22T10:04:26.006Z,5.82
2023-04-22T10:06:53.906Z,6.95
2023-04-22T10:09:24.535Z,6.45
2023-04-22T10:11:54.350Z,5.65
2023-04-22T10:14:24.463Z,9.10
2023-04-22T10:16:58.994Z,6.50
2023-04-22T10:19:27.218Z,7.45
2023-04-22T10:21:59.422Z,6.38
2023-04-22T10:24:28.310Z,13.57
2023-04-22T10:27:01.580Z,11.68
2023-04-22T10:29:38.656Z,8.90
2023-04-22T10:32:18.191Z,8.98
2023-04-22T10:34:49.489Z,5.13
2023-04-22T10:37:20.664Z,5.97
2023-04-22T10:40:08.681Z,5.05
2023-04-22T10:42:36.352Z,5.30
2023-04-22T10:45:04.861Z,11.57
2023-04-22T10:47:36.904Z,8.50
2023-04-22T10:50:19.001Z,4.88
2023-04-22T10:52:51.463Z,6.70
2023-04-22T10:55:18.967Z,6.45
2023-04-22T10:57:47.974Z,5.40
2023-04-22T11:00:25.585Z,10.75
2023-04-22T11:03:10.836Z,5.72
2023-04-22T11:05:38.494Z,6.90
2023-04-22T11:08:12.747Z,9.80
2023-04-22T11:10:45.349Z,5.65
2023-04-22T11:13:15.404Z,7.32
2023-04-22T11:15:45.196Z,7.18
2023-04-22T11:18:23.963Z,6.55
2023-04-22T11:20:51.642Z,5.18
2023-04-22T11:23:25.612Z,7.47
2023-04-22T11:25:57.609Z,8.52
2023-04-22T11:28:25.050Z,8.82
2023-04-22T11:30:52.505Z,3.95
2023-04-22T11:33:20.372Z,6.25
2023-04-22T11:35:49.452Z,4.55
2023-04-22T11:38:16.425Z,5.80
2023-04-22T11:40:46.457Z,7.50
2023-04-22T11:43:14.514Z,6.43
2023-04-22T11:45:41.292Z,7.85
2023-04-22T11:48:09.807Z,5.10
2023-04-22T11:50:39.586Z,9.32
2023-04-22T11:53:16.842Z,4.28
2023-04-22T11:55:45.394Z,6.50
2023-04-22T11:58:14.777Z,6.30
2023-04-22T12:00:44.392Z,6.55
2023-04-22T12:03:15.469Z,9.85
2023-04-22T12:05:44.986Z,6.85
2023-04-22T12:08:17.315Z,7.15
2023-04-22T12:10:50.713Z,7.18
2023-04-22T12:13:33.034Z,5.43
2023-04-22T12:16:19.609Z,3.53
2023-04-22T12:18:55.030Z,4.38
2023-04-22T12:21:28.417Z,7.20
2023-04-22T12:24:04.746Z,10.68
2023-04-22T12:26:31.905Z,3.38
2023-04-22T12:29:00.541Z,5.53
2023-04-22T12:31:27.603Z,5.97
2023-04-22T12:33:54.914Z,4.63
2023-04-22T12:36:22.200Z,3.58
2023-04-22T12:38:49.734Z,6.32
2023-04-22T12:41:16.588Z,4.28
2023-04-22T12:43:43.580Z,5.55
2023-04-22T12:46:10.479Z,5.88
2023-04-22T12:48:37.866Z,6.22
2023-04-22T12:51:08.096Z,5.90
2023-04-22T12:53:35.064Z,7.15
2023-04-22T12:56:01.822Z,8.07
2023-04-22T12:58:28.948Z,7.00
2023-04-22T13:00:55.721Z,8.75
2023-04-22T13:03:23.059Z,5.18
2023-04-22T13:05:49.926Z,5.57
2023-04-22T13:08:17.403Z,5.68
2023-04-22T13:10:44.264Z,6.30
2023-04-22T13:13:18.617Z,10.55
2023-04-22T13:15:54.110Z,9.68
2023-04-22T13:18:22.881Z,6.68
2023-04-22T13:20:49.652Z,7.88
2023-04-22T13:23:17.185Z,7.28
2023-04-22T13:25:44.348Z,7.13
2023-04-22T13:28:11.766Z,6.47
2023-04-22T13:30:39.285Z,6.90
2023-04-22T13:33:06.369Z,7.03
2023-04-22T13:35:33.272Z,8.63
2023-04-22T13:38:01.356Z,5.97
2023-04-22T13:40:28.866Z,6.72
2023-04-22T13:42:55.951Z,3.20
2023-04-22T13:45:22.781Z,5.95
2023-04-22T13:47:49.868Z,5.80
2023-04-22T13:50:16.719Z,13.80
2023-04-22T13:52:44.113Z,5.70
2023-04-22T13:55:10.978Z,5.38
2023-04-22T13:57:37.950Z,5.65
2023-04-22T14:00:05.367Z,7.95
2023-04-22T14:02:39.173Z,11.95
2023-04-22T14:05:07.393Z,12.27
2023-04-22T14:07:34.390Z,7.07
2023-04-22T14:10:01.121Z,5.65
2023-04-22T14:12:28.209Z,6.25
2023-04-22T14:14:54.896Z,6.25
2023-04-22T14:17:22.928Z,6.85
2023-04-22T14:19:49.965Z,8.65
2023-04-22T14:22:16.929Z,6.72
2023-04-22T14:24:43.600Z,8.77
2023-04-22T14:27:12.445Z,7.60
2023-04-22T14:29:39.766Z,10.02
2023-04-22T14:32:07.054Z,5.35
2023-04-22T14:34:33.934Z,13.32
2023-04-22T14:37:00.946Z,8.32
2023-04-22T14:39:27.648Z,10.07
2023-04-22T14:41:55.389Z,10.90
2023-04-22T14:44:22.287Z,9.10
2023-04-22T14:46:49.215Z,7.15
2023-04-22T14:49:15.997Z,10.05
2023-04-22T14:51:43.101Z,7.88
2023-04-22T14:54:09.919Z,6.55
2023-04-22T14:56:36.919Z,11.30
2023-04-22T14:59:03.665Z,9.18
2023-04-22T15:01:31.616Z,7.97
2023-04-22T15:03:58.776Z,9.15
2023-04-22T15:06:27.570Z,5.97
2023-04-22T15:08:55.846Z,8.77
2023-04-22T15:11:22.904Z,9.65
2023-04-22T15:13:49.592Z,6.55
2023-04-22T15:16:16.650Z,9.45
2023-04-22T15:18:43.385Z,11.65
2023-04-22T15:21:10.637Z,10.35
2023-04-22T15:23:37.480Z,9.80
2023-04-22T15:26:04.580Z,11.18
2023-04-22T15:28:31.374Z,10.45
2023-04-22T15:30:58.351Z,12.75
2023-04-22T15:33:25.202Z,12.55
2023-04-22T15:35:52.174Z,15.80
2023-04-22T15:38:19.043Z,12.13
2023-04-22T15:40:46.114Z,7.28
2023-04-22T15:43:12.863Z,9.32
2023-04-22T15:45:40.047Z,13.43
2023-04-22T15:48:06.899Z,13.93
2023-04-22T15:50:34.083Z,14.98
2023-04-22T15:53:00.828Z,10.15
2023-04-22T15:55:27.884Z,8.05
2023-04-22T15:57:54.666Z,8.15
2023-04-22T16:00:21.755Z,12.93
2023-04-22T16:02:55.326Z,8.98
2023-04-22T16:05:24.802Z,12.13
2023-04-22T16:07:52.988Z,11.18
2023-04-22T16:10:20.804Z,14.88
2023-04-22T16:12:47.638Z,11.27
2023-04-22T16:15:14.811Z,12.18
2023-04-22T16:17:41.753Z,11.73
2023-04-22T16:20:09.635Z,12.82
2023-04-22T16:22:37.052Z,12.55
2023-04-22T16:25:04.549Z,11.40
2023-04-22T16:27:31.832Z,8.52
2023-04-22T16:29:58.972Z,9.65
2023-04-22T16:32:25.785Z,12.82
2023-04-22T16:34:52.798Z,10.95
2023-04-22T16:37:19.583Z,9.70
2023-04-22T16:39:46.684Z,12.18
2023-04-22T16:42:13.481Z,11.00
2023-04-22T16:44:40.607Z,11.10
2023-04-22T16:47:07.343Z,11.27
2023-04-22T16:49:34.362Z,12.00
2023-04-22T16:52:01.129Z,7.65
2023-04-22T16:54:29.579Z,11.45
2023-04-22T16:56:57.504Z,9.80
2023-04-22T16:59:24.670Z,8.93
2023-04-22T17:01:51.810Z,8.27
2023-04-22T17:04:19.006Z,8.25
2023-04-22T17:06:46.142Z,13.05
2023-04-22T17:09:13.188Z,13.13
2023-04-22T17:11:39.949Z,11.20
2023-04-22T17:14:06.948Z,10.93
2023-04-22T17:16:33.667Z,11.90
2023-04-22T17:19:00.895Z,12.38
2023-04-22T17:21:27.981Z,10.88
2023-04-22T17:23:55.189Z,8.70
2023-04-22T17:26:21.864Z,8.45
2023-04-22T17:28:48.855Z,8.55
2023-04-22T17:31:15.616Z,8.02
2023-04-22T17:33:42.584Z,16.92
2023-04-22T17:36:09.381Z,8.93
2023-04-22T17:38:36.356Z,9.90
2023-04-22T17:41:03.296Z,13.63
2023-04-22T17:43:30.486Z,16.70
2023-04-22T17:45:57.147Z,22.60
2023-04-22T17:48:24.132Z,26.95
2023-04-22T17:50:51.121Z,26.13
2023-04-22T17:53:18.113Z,11.95
2023-04-22T17:55:44.882Z,11.45
2023-04-22T17:58:12.012Z,10.95
2023-04-22T18:00:39.006Z,16.15
2023-04-22T18:03:06.358Z,9.88
2023-04-22T18:05:33.174Z,11.48
2023-04-22T18:08:02.704Z,15.20
2023-04-22T18:10:30.844Z,22.85
2023-04-22T18:12:57.932Z,38.35
2023-04-22T18:15:24.698Z,34.03
2023-04-22T18:17:51.912Z,36.08
2023-04-22T18:20:19.707Z,43.72
2023-04-22T18:22:49.460Z,57.97
2023-04-22T18:25:16.434Z,47.22
2023-04-22T18:27:44.004Z,52.45
2023-04-22T18:30:11.359Z,43.53
2023-04-22T18:32:38.632Z,30.63
2023-04-22T18:35:06.155Z,23.92
2023-04-22T18:37:34.668Z,12.40
2023-04-22T18:40:02.261Z,11.77
2023-04-22T18:42:30.020Z,10.52
2023-04-22T18:44:56.734Z,12.52
2023-04-22T18:47:23.865Z,9.75
2023-04-22T18:49:50.825Z,11.13
2023-04-22T18:52:18.457Z,11.98
2023-04-22T18:54:45.477Z,9.00
2023-04-22T18:57:12.544Z,11.43
2023-04-22T18:59:39.736Z,13.25
2023-04-22T19:02:06.970Z,19.50
2023-04-22T19:04:33.874Z,28.38
2023-04-22T19:07:00.924Z,23.55
2023-04-22T19:09:27.735Z,24.23
2023-04-22T19:11:55.498Z,35.08
2023-04-22T19:14:22.324Z,29.98
2023-04-22T19:16:49.375Z,16.65
2023-04-22T19:19:16.199Z,10.82
2023-04-22T19:21:43.524Z,11.82
2023-04-22T19:24:10.807Z,13.05
2023-04-22T19:26:37.838Z,11.27
2023-04-22T19:29:04.633Z,9.68
2023-04-22T19:31:31.932Z,11.23
2023-04-22T19:33:59.237Z,12.93
2023-04-22T19:36:27.128Z,26.70
2023-04-22T19:38:53.985Z,29.48
2023-04-22T19:41:21.638Z,33.35
2023-04-22T19:43:48.585Z,31.90
2023-04-22T19:46:15.669Z,28.83
2023-04-22T19:48:42.622Z,27.13
2023-04-22T19:51:11.114Z,25.55
2023-04-22T19:53:39.171Z,30.15
2023-04-22T19:56:07.004Z,28.08
2023-04-22T19:58:34.059Z,24.48
2023-04-22T20:01:01.191Z,22.05
2023-04-22T20:03:28.314Z,17.73
2023-04-22T20:05:55.876Z,14.48
2023-04-22T20:08:27.623Z,14.35
2023-04-22T20:10:55.236Z,12.75
2023-04-22T20:13:22.591Z,15.27
2023-04-22T20:15:50.195Z,9.97
2023-04-22T20:18:17.637Z,13.70
2023-04-22T20:20:48.178Z,13.68
2023-04-22T20:23:16.868Z,9.38
2023-04-22T20:25:44.764Z,14.00
2023-04-22T20:28:11.938Z,11.30
2023-04-22T20:30:39.349Z,16.70
2023-04-22T20:33:06.380Z,15.57
2023-04-22T20:35:35.848Z,18.57
2023-04-22T20:38:03.624Z,15.90
2023-04-22T20:40:30.847Z,17.35
2023-04-22T20:42:58.948Z,23.97
2023-04-22T20:45:27.248Z,17.07
2023-04-22T20:47:54.389Z,16.92
2023-04-22T20:50:21.581Z,27.23
2023-04-22T20:52:49.074Z,36.58
2023-04-22T20:55:17.128Z,49.28
2023-04-22T20:57:44.267Z,70.40
2023-04-22T21:00:14.705Z,59.25
2023-04-22T21:02:42.477Z,53.05
2023-04-22T21:05:11.258Z,60.20
2023-04-22T21:07:39.418Z,50.43
2023-04-22T21:10:07.434Z,54.37
2023-04-22T21:12:34.480Z,71.80
2023-04-22T21:15:01.754Z,60.63
2023-04-22T21:17:31.995Z,60.07
2023-04-22T21:19:59.936Z,52.90
2023-04-22T21:22:26.870Z,53.60
2023-04-22T21:24:54.104Z,49.10
2023-04-22T21:27:22.221Z,57.27
2023-04-22T21:29:49.996Z,85.27
2023-04-22T21:32:20.065Z,191.20
2023-04-22T21:34:47.169Z,219.40
2023-04-22T21:37:14.465Z,202.60
2023-04-22T21:39:41.922Z,191.60
2023-04-22T21:42:09.070Z,143.43
2023-04-22T21:44:37.423Z,115.27
2023-04-22T21:47:05.134Z,115.23
2023-04-22T21:49:32.883Z,100.73
2023-04-22T21:52:04.982Z,96.50
2023-04-22T21:54:35.668Z,88.43
2023-04-22T21:57:02.537Z,106.57
2023-04-22T21:59:29.643Z,177.43
2023-04-22T22:01:56.350Z,150.97
2023-04-22T22:04:23.557Z,155.07
2023-04-22T22:06:50.483Z,137.63
2023-04-22T22:09:17.692Z,115.50
2023-04-22T22:11:44.461Z,88.23
2023-04-22T22:14:11.477Z,84.37
2023-04-22T22:16:38.547Z,61.70
2023-04-22T22:19:06.428Z,58.43
2023-04-22T22:21:33.405Z,77.70
2023-04-22T22:24:00.464Z,62.13
2023-04-22T22:26:27.954Z,49.23
2023-04-22T22:28:55.102Z,53.50
2023-04-22T22:31:21.856Z,55.90
2023-04-22T22:33:49.009Z,66.00
2023-04-22T22:36:16.259Z,60.63
2023-04-22T22:38:43.349Z,56.93
2023-04-22T22:41:10.025Z,55.20
2023-04-22T22:43:37.096Z,50.10
2023-04-22T22:46:04.268Z,46.47
2023-04-22T22:48:31.485Z,43.57
2023-04-22T22:50:58.178Z,41.13
2023-04-22T22:53:25.193Z,43.50
2023-04-22T22:55:51.913Z,45.23
2023-04-22T22:58:18.951Z,40.33
2023-04-22T23:00:45.821Z,39.97
2023-04-22T23:03:12.968Z,35.70
2023-04-22T23:05:39.819Z,33.83
2023-04-22T23:08:07.130Z,32.00
2023-04-22T23:10:33.834Z,29.57
2023-04-22T23:13:03.428Z,28.97
2023-04-22T23:15:30.251Z,30.50
2023-04-22T23:17:57.322Z,32.00
2023-04-22T23:20:24.476Z,36.63
2023-04-22T23:22:52.110Z,34.03
2023-04-22T23:25:19.154Z,29.37
2023-04-22T23:27:46.581Z,42.50
2023-04-22T23:30:13.961Z,34.73
2023-04-22T23:32:43.271Z,28.93
2023-04-22T23:35:12.880Z,33.23
2023-04-22T23:37:44.901Z,28.90
2023-04-22T23:40:12.578Z,25.13
2023-04-22T23:42:39.755Z,28.37
2023-04-22T23:45:07.266Z,29.67
2023-04-22T23:47:34.346Z,23.00
2023-04-22T23:50:01.262Z,23.73
2023-04-22T23:52:28.440Z,23.50
2023-04-22T23:54:56.873Z,22.63
2023-04-22T23:57:24.125Z,23.87
2023-04-22T23:59:51.530Z,21.77
